createdAt,value
2023-01-08T00:01:12.236Z,47.97
2023-01-08T00:03:40.137Z,55.80
2023-01-08T00:06:17.191Z,51.53
2023-01-08T00:08:45.290Z,45.53
2023-01-08T00:11:13.879Z,44.77
2023-01-08T00:13:41.237Z,46.90
2023-01-08T00:16:13.531Z,56.77
2023-01-08T00:18:41.336Z,40.57
2023-01-08T00:21:09.148Z,39.17
2023-01-08T00:23:37.106Z,39.57
2023-01-08T00:26:06.588Z,42.57
2023-01-08T00:28:35.027Z,47.87
2023-01-08T00:31:06.559Z,44.27
2023-01-08T00:33:35.855Z,40.60
2023-01-08T00:36:14.615Z,38.80
2023-01-08T00:38:43.038Z,35.50
2023-01-08T00:41:10.679Z,38.60
2023-01-08T00:43:37.917Z,38.80
2023-01-08T00:46:07.116Z,38.30
2023-01-08T00:48:39.156Z,34.43
2023-01-08T00:51:08.931Z,39.13
2023-01-08T00:53:38.503Z,36.10
2023-01-08T00:56:11.196Z,38.60
2023-01-08T00:58:39.264Z,39.10
2023-01-08T01:01:12.833Z,33.63
2023-01-08T01:03:40.711Z,37.77
2023-01-08T01:06:08.580Z,37.17
2023-01-08T01:08:35.877Z,38.13
2023-01-08T01:11:08.378Z,40.60
2023-01-08T01:13:35.569Z,39.20
2023-01-08T01:16:04.299Z,40.23
2023-01-08T01:18:32.113Z,37.60
2023-01-08T01:20:59.380Z,48.90
2023-01-08T01:23:26.864Z,36.13
2023-01-08T01:25:54.716Z,56.23
2023-01-08T01:28:22.166Z,38.63
2023-01-08T01:30:57.637Z,30.67
2023-01-08T01:33:25.076Z,37.37
2023-01-08T01:36:01.322Z,34.70
2023-01-08T01:38:29.387Z,33.27
2023-01-08T01:40:56.789Z,40.23
2023-01-08T01:43:41.271Z,39.47
2023-01-08T01:46:36.102Z,36.03
2023-01-08T01:49:20.182Z,39.23
2023-01-08T01:51:54.144Z,36.57
2023-01-08T01:54:22.360Z,36.13
2023-01-08T01:56:50.816Z,39.83
2023-01-08T01:59:18.193Z,43.93
2023-01-08T02:01:46.217Z,57.37
2023-01-08T02:04:14.785Z,56.63
2023-01-08T02:06:45.153Z,60.77
2023-01-08T02:09:16.078Z,56.23
2023-01-08T02:12:19.902Z,168.53
2023-01-08T02:15:04.213Z,102.57
2023-01-08T02:17:50.413Z,93.13
2023-01-08T02:20:32.843Z,60.60
2023-01-08T02:23:36.066Z,64.97
2023-01-08T02:26:32.159Z,57.07
2023-01-08T02:29:10.419Z,65.03
2023-01-08T02:31:40.932Z,70.10
2023-01-08T02:34:08.918Z,60.20
2023-01-08T02:36:43.004Z,57.63
2023-01-08T02:39:43.697Z,72.00
2023-01-08T02:42:46.464Z,75.50
2023-01-08T02:45:22.735Z,70.83
2023-01-08T02:47:52.714Z,68.30
2023-01-08T02:50:24.702Z,70.87
2023-01-08T02:53:03.051Z,102.97
2023-01-08T02:55:33.732Z,95.43
2023-01-08T02:58:02.016Z,95.53
2023-01-08T03:00:30.897Z,81.17
2023-01-08T03:03:10.242Z,55.50
2023-01-08T03:05:40.530Z,76.20
2023-01-08T03:08:12.057Z,74.17
2023-01-08T03:10:44.694Z,126.70
2023-01-08T03:13:28.091Z,115.50
2023-01-08T03:15:59.696Z,101.17
2023-01-08T03:18:44.303Z,88.30
2023-01-08T03:21:14.186Z,91.00
2023-01-08T03:23:43.048Z,91.23
2023-01-08T03:26:11.558Z,99.07
2023-01-08T03:28:44.768Z,88.60
2023-01-08T03:31:16.225Z,83.30
2023-01-08T03:33:45.653Z,80.93
2023-01-08T03:36:18.222Z,100.33
2023-01-08T03:39:06.214Z,76.80
2023-01-08T03:41:36.312Z,76.50
2023-01-08T03:44:04.728Z,80.30
2023-01-08T03:46:42.270Z,77.80
2023-01-08T03:49:13.244Z,72.83
2023-01-08T03:51:46.008Z,53.43
2023-01-08T03:54:18.855Z,57.90
2023-01-08T03:56:46.782Z,57.90
2023-01-08T03:59:15.740Z,50.37
2023-01-08T04:01:43.266Z,44.13
2023-01-08T04:04:12.901Z,44.80
2023-01-08T04:06:40.853Z,44.90
2023-01-08T04:09:08.209Z,50.30
2023-01-08T04:11:35.685Z,47.77
2023-01-08T04:14:03.416Z,44.60
2023-01-08T04:16:31.942Z,43.00
2023-01-08T04:18:59.253Z,42.90
2023-01-08T04:21:26.515Z,42.70
2023-01-08T04:23:55.388Z,52.63
2023-01-08T04:26:23.224Z,52.73
2023-01-08T04:28:50.763Z,55.97
2023-01-08T04:31:18.118Z,50.90
2023-01-08T04:33:45.798Z,40.70
2023-01-08T04:36:13.334Z,43.73
2023-01-08T04:38:40.685Z,47.63
2023-01-08T04:41:08.804Z,47.70
2023-01-08T04:43:36.118Z,54.50
2023-01-08T04:46:08.004Z,50.70
2023-01-08T04:48:35.987Z,51.40
2023-01-08T04:51:04.740Z,57.67
2023-01-08T04:53:35.905Z,47.40
2023-01-08T04:56:07.780Z,52.97
2023-01-08T04:58:36.718Z,59.27
2023-01-08T05:01:16.835Z,62.10
2023-01-08T05:03:44.189Z,74.13
2023-01-08T05:06:11.602Z,62.43
2023-01-08T05:08:39.039Z,49.80
2023-01-08T05:11:06.504Z,51.53
2023-01-08T05:13:34.466Z,49.27
2023-01-08T05:16:02.400Z,43.40
2023-01-08T05:18:31.299Z,44.60
2023-01-08T05:21:03.392Z,42.43
2023-01-08T05:23:32.198Z,41.27
2023-01-08T05:26:00.651Z,40.27
2023-01-08T05:28:28.677Z,43.23
2023-01-08T05:30:56.814Z,43.23
2023-01-08T05:33:25.207Z,39.20
2023-01-08T05:35:52.588Z,41.20
2023-01-08T05:38:20.143Z,37.20
2023-01-08T05:40:47.466Z,36.57
2023-01-08T05:43:14.764Z,42.90
2023-01-08T05:45:42.134Z,38.37
2023-01-08T05:48:10.847Z,38.83
2023-01-08T05:50:38.977Z,40.07
2023-01-08T05:53:09.817Z,36.23
2023-01-08T05:55:37.619Z,42.17
2023-01-08T05:58:06.275Z,47.60
2023-01-08T06:00:35.173Z,81.70
2023-01-08T06:03:02.661Z,56.90
2023-01-08T06:05:32.035Z,47.73
2023-01-08T06:08:00.017Z,47.00
2023-01-08T06:10:27.861Z,48.27
2023-01-08T06:12:55.766Z,48.97
2023-01-08T06:15:23.175Z,52.73
2023-01-08T06:17:51.089Z,74.07
2023-01-08T06:20:18.464Z,61.00
2023-01-08T06:22:45.729Z,58.73
2023-01-08T06:25:13.229Z,87.57
2023-01-08T06:27:40.758Z,72.07
2023-01-08T06:30:09.248Z,65.93
2023-01-08T06:32:36.897Z,52.43
2023-01-08T06:35:04.596Z,51.73
2023-01-08T06:37:32.234Z,60.30
2023-01-08T06:39:59.795Z,70.43
2023-01-08T06:42:27.200Z,78.60
2023-01-08T06:44:54.507Z,58.50
2023-01-08T06:47:22.027Z,50.60
2023-01-08T06:49:49.324Z,46.20
2023-01-08T06:52:16.774Z,50.83
2023-01-08T06:54:44.176Z,45.60
2023-01-08T06:57:11.699Z,46.10
2023-01-08T06:59:39.230Z,45.17
2023-01-08T07:02:06.770Z,52.63
2023-01-08T07:04:34.213Z,48.77
2023-01-08T07:07:02.224Z,62.37
2023-01-08T07:09:29.738Z,63.13
2023-01-08T07:11:57.433Z,68.73
2023-01-08T07:14:24.835Z,114.47
2023-01-08T07:16:52.307Z,89.20
2023-01-08T07:19:19.649Z,87.53
2023-01-08T07:21:46.931Z,78.63
2023-01-08T07:24:14.422Z,83.67
2023-01-08T07:26:41.916Z,76.27
2023-01-08T07:29:09.747Z,64.60
2023-01-08T07:31:38.095Z,45.33
2023-01-08T07:34:05.735Z,50.17
2023-01-08T07:36:33.125Z,55.70
2023-01-08T07:39:00.925Z,51.27
2023-01-08T07:41:28.254Z,53.23
2023-01-08T07:43:55.632Z,55.37
2023-01-08T07:46:23.320Z,70.43
2023-01-08T07:48:51.121Z,83.63
2023-01-08T07:51:18.481Z,122.80
2023-01-08T07:53:46.065Z,151.97
2023-01-08T07:56:13.833Z,180.00
2023-01-08T07:58:41.179Z,184.47
2023-01-08T08:01:11.207Z,115.23
2023-01-08T08:03:39.777Z,104.47
2023-01-08T08:06:07.960Z,86.40
2023-01-08T08:08:35.952Z,80.87
2023-01-08T08:11:04.088Z,67.43
2023-01-08T08:13:31.647Z,92.60
2023-01-08T08:16:05.014Z,65.53
2023-01-08T08:18:33.015Z,81.40
2023-01-08T08:21:00.305Z,68.17
2023-01-08T08:23:27.630Z,75.07
2023-01-08T08:25:55.005Z,98.80
2023-01-08T08:28:22.416Z,132.97
2023-01-08T08:30:56.333Z,126.33
2023-01-08T08:33:23.757Z,101.70
2023-01-08T08:35:51.497Z,109.90
2023-01-08T08:38:19.078Z,89.57
2023-01-08T08:40:46.341Z,77.47
2023-01-08T08:43:19.303Z,75.17
2023-01-08T08:45:47.190Z,83.47
2023-01-08T08:48:16.362Z,88.60
2023-01-08T08:50:44.007Z,81.27
2023-01-08T08:53:14.350Z,80.00
2023-01-08T08:55:41.796Z,122.83
2023-01-08T08:58:13.046Z,124.63
2023-01-08T09:00:43.602Z,84.23
2023-01-08T09:03:17.511Z,68.00
2023-01-08T09:05:47.871Z,67.60
2023-01-08T09:08:15.419Z,60.30
2023-01-08T09:10:43.888Z,57.00
2023-01-08T09:13:13.280Z,46.30
2023-01-08T09:15:40.691Z,55.60
2023-01-08T09:18:08.339Z,53.87
2023-01-08T09:20:36.053Z,88.43
2023-01-08T09:23:04.115Z,93.23
2023-01-08T09:25:31.712Z,172.00
2023-01-08T09:28:04.479Z,95.17
2023-01-08T09:30:32.390Z,137.67
2023-01-08T09:33:04.499Z,283.83
2023-01-08T09:35:34.950Z,367.00
2023-01-08T09:38:03.006Z,267.63
2023-01-08T09:40:40.131Z,221.17
2023-01-08T09:43:15.528Z,135.67
2023-01-08T09:45:46.634Z,94.93
2023-01-08T09:48:17.540Z,84.87
2023-01-08T09:50:45.425Z,63.53
2023-01-08T09:53:15.628Z,39.53
2023-01-08T09:55:43.874Z,37.50
2023-01-08T09:58:30.377Z,34.63
2023-01-08T10:00:58.475Z,32.07
2023-01-08T10:03:38.850Z,33.50
2023-01-08T10:06:16.589Z,40.27
2023-01-08T10:11:16.724Z,46.67
2023-01-08T10:13:57.353Z,25.67
2023-01-08T10:16:37.526Z,26.93
2023-01-08T10:19:05.740Z,46.63
2023-01-08T10:21:40.198Z,31.60
2023-01-08T10:24:09.315Z,28.03
2023-01-08T10:26:39.017Z,45.73
2023-01-08T10:29:19.813Z,82.83
2023-01-08T10:31:51.348Z,77.87
2023-01-08T10:34:39.974Z,35.90
2023-01-08T10:37:23.824Z,64.37
2023-01-08T10:39:53.152Z,63.23
2023-01-08T10:42:23.193Z,50.47
2023-01-08T10:45:23.281Z,78.20
2023-01-08T10:47:55.735Z,26.80
2023-01-08T10:50:26.694Z,20.87
2023-01-08T10:53:02.997Z,78.93
2023-01-08T10:55:40.135Z,33.17
2023-01-08T10:58:10.438Z,28.00
2023-01-08T11:00:38.615Z,30.47
2023-01-08T11:03:21.468Z,20.47
2023-01-08T11:05:50.337Z,20.27
2023-01-08T11:08:22.910Z,94.53
2023-01-08T11:11:02.380Z,21.33
2023-01-08T11:13:30.919Z,20.30
2023-01-08T11:16:14.145Z,44.33
2023-01-08T11:18:48.908Z,95.33
2023-01-08T11:21:28.404Z,36.63
2023-01-08T11:24:23.170Z,26.80
2023-01-08T11:27:22.675Z,37.20
2023-01-08T11:30:08.512Z,28.50
2023-01-08T11:32:58.384Z,20.30
2023-01-08T11:35:31.446Z,47.27
2023-01-08T11:38:02.758Z,27.43
2023-01-08T11:40:48.904Z,21.10
2023-01-08T11:43:34.175Z,44.87
2023-01-08T11:46:09.052Z,20.37
2023-01-08T11:49:03.801Z,18.77
2023-01-08T11:52:02.671Z,16.63
2023-01-08T11:54:49.221Z,18.27
2023-01-08T11:57:42.049Z,16.53
2023-01-08T12:00:28.056Z,19.03
2023-01-08T12:02:59.065Z,19.07
2023-01-08T12:05:39.354Z,16.90
2023-01-08T12:08:13.370Z,16.77
2023-01-08T12:10:59.253Z,16.63
2023-01-08T12:13:44.980Z,18.60
2023-01-08T12:16:34.023Z,13.23
2023-01-08T12:19:17.991Z,14.57
2023-01-08T12:22:22.687Z,16.50
2023-01-08T12:25:11.523Z,19.27
2023-01-08T12:28:00.323Z,19.77
2023-01-08T12:30:49.182Z,17.63
2023-01-08T12:33:34.586Z,21.37
2023-01-08T12:36:09.775Z,10.87
2023-01-08T12:38:40.643Z,12.30
2023-01-08T12:41:17.202Z,12.90
2023-01-08T12:44:01.649Z,13.73
2023-01-08T12:46:37.858Z,16.87
2023-01-08T12:49:08.254Z,14.97
2023-01-08T12:51:50.384Z,16.43
2023-01-08T12:54:24.713Z,20.20
2023-01-08T12:57:13.285Z,13.27
2023-01-08T12:59:53.892Z,13.23
2023-01-08T13:02:42.485Z,14.10
2023-01-08T13:05:37.027Z,13.70
2023-01-08T13:08:33.347Z,22.67
2023-01-08T13:11:01.333Z,20.77
2023-01-08T13:13:45.622Z,17.93
2023-01-08T13:16:14.563Z,19.30
2023-01-08T13:18:54.093Z,20.57
2023-01-08T13:21:32.305Z,21.13
2023-01-08T13:24:22.168Z,13.40
2023-01-08T13:26:49.456Z,58.67
2023-01-08T13:29:47.095Z,44.50
2023-01-08T13:32:45.957Z,20.47
2023-01-08T13:35:16.100Z,21.73
2023-01-08T13:37:44.774Z,22.37
2023-01-08T13:40:36.768Z,16.43
2023-01-08T13:43:07.128Z,18.53
2023-01-08T13:45:34.860Z,29.00
2023-01-08T13:48:02.379Z,61.43
2023-01-08T13:50:31.045Z,58.83
2023-01-08T13:53:05.334Z,69.67
2023-01-08T13:55:39.550Z,83.63
2023-01-08T13:58:18.600Z,87.03
2023-01-08T14:00:50.209Z,102.97
2023-01-08T14:03:24.771Z,87.50
2023-01-08T14:05:52.247Z,67.83
2023-01-08T14:08:24.401Z,65.87
2023-01-08T14:10:53.567Z,82.63
2023-01-08T14:13:27.744Z,94.23
2023-01-08T14:16:01.453Z,120.40
2023-01-08T14:18:29.273Z,104.80
2023-01-08T14:20:56.971Z,101.37
2023-01-08T14:23:28.413Z,70.07
2023-01-08T14:25:55.781Z,78.93
2023-01-08T14:28:23.968Z,71.17
2023-01-08T14:30:57.550Z,71.90
2023-01-08T14:33:30.715Z,102.50
2023-01-08T14:35:58.692Z,86.23
2023-01-08T14:38:26.164Z,96.00
2023-01-08T14:41:06.215Z,102.73
2023-01-08T14:43:39.094Z,114.20
2023-01-08T14:46:33.029Z,124.20
2023-01-08T14:49:00.936Z,108.20
2023-01-08T14:51:31.251Z,108.33
2023-01-08T14:54:05.897Z,71.50
2023-01-08T14:56:35.562Z,51.07
2023-01-08T14:59:12.496Z,49.53
2023-01-08T15:01:40.618Z,37.63
2023-01-08T15:04:15.509Z,42.43
2023-01-08T15:06:43.275Z,59.03
2023-01-08T15:09:36.947Z,44.17
2023-01-08T15:12:09.155Z,57.97
2023-01-08T15:14:37.799Z,70.17
2023-01-08T15:17:20.743Z,113.50
2023-01-08T15:20:00.175Z,109.77
2023-01-08T15:22:32.946Z,203.60
2023-01-08T15:25:02.962Z,173.93
2023-01-08T15:27:37.763Z,211.87
2023-01-08T15:30:06.160Z,129.33
2023-01-08T15:32:39.287Z,37.27
2023-01-08T15:35:17.719Z,30.53
2023-01-08T15:37:45.297Z,76.13
2023-01-08T15:40:13.957Z,282.67
2023-01-08T15:42:59.749Z,205.23
2023-01-08T15:45:29.745Z,176.67
2023-01-08T15:47:57.193Z,145.63
2023-01-08T15:50:26.319Z,123.73
2023-01-08T15:52:54.106Z,325.50
2023-01-08T15:55:23.726Z,291.03
2023-01-08T15:57:51.745Z,443.60
2023-01-08T16:00:23.192Z,227.83
2023-01-08T16:02:53.584Z,279.97
2023-01-08T16:05:23.117Z,322.80
2023-01-08T16:07:52.049Z,181.30
2023-01-08T16:10:20.188Z,333.87
2023-01-08T16:12:47.819Z,273.07
2023-01-08T16:15:16.189Z,220.00
2023-01-08T16:17:44.195Z,179.13
2023-01-08T16:20:13.443Z,192.97
2023-01-08T16:22:41.492Z,150.10
2023-01-08T16:25:09.929Z,128.93
2023-01-08T16:27:38.836Z,129.57
2023-01-08T16:30:09.329Z,109.93
2023-01-08T16:32:37.203Z,117.00
2023-01-08T16:35:05.075Z,91.53
2023-01-08T16:37:32.783Z,81.77
2023-01-08T16:40:00.284Z,62.43
2023-01-08T16:42:27.683Z,61.83
2023-01-08T16:44:55.149Z,71.37
2023-01-08T16:47:22.433Z,106.90
2023-01-08T16:49:50.701Z,144.93
2023-01-08T16:52:18.601Z,65.10
2023-01-08T16:54:46.717Z,54.23
2023-01-08T16:57:14.724Z,68.60
2023-01-08T16:59:42.088Z,51.87
2023-01-08T17:02:10.803Z,40.87
2023-01-08T17:04:39.381Z,45.67
2023-01-08T17:07:10.336Z,47.23
2023-01-08T17:09:37.956Z,70.87
2023-01-08T17:12:05.549Z,56.73
2023-01-08T17:14:32.874Z,73.40
2023-01-08T17:17:00.354Z,75.97
2023-01-08T17:19:27.695Z,72.97
2023-01-08T17:21:55.876Z,79.10
2023-01-08T17:24:23.536Z,232.47
2023-01-08T17:26:50.836Z,281.50
2023-01-08T17:29:18.368Z,325.93
2023-01-08T17:31:45.762Z,226.70
2023-01-08T17:34:14.635Z,217.30
2023-01-08T17:36:42.609Z,256.80
2023-01-08T17:39:15.362Z,264.73
2023-01-08T17:42:01.351Z,265.77
2023-01-08T17:44:29.158Z,237.87
2023-01-08T17:46:57.031Z,177.87
2023-01-08T17:49:24.984Z,178.43
2023-01-08T17:51:54.271Z,177.17
2023-01-08T17:54:22.688Z,153.17
2023-01-08T17:56:50.496Z,155.73
2023-01-08T17:59:19.129Z,189.50
2023-01-08T18:01:47.864Z,315.27
2023-01-08T18:04:16.168Z,321.63
2023-01-08T18:06:44.338Z,310.00
2023-01-08T18:09:12.782Z,267.77
2023-01-08T18:11:41.092Z,288.83
2023-01-08T18:14:10.638Z,325.77
2023-01-08T18:16:38.895Z,333.30
2023-01-08T18:19:06.759Z,303.50
2023-01-08T18:21:34.104Z,336.03
2023-01-08T18:24:01.384Z,311.77
2023-01-08T18:26:29.356Z,279.17
2023-01-08T18:28:56.742Z,266.83
2023-01-08T18:31:24.101Z,185.80
2023-01-08T18:33:52.621Z,151.57
2023-01-08T18:36:21.198Z,173.87
2023-01-08T18:38:50.986Z,189.93
2023-01-08T18:41:49.460Z,126.07
2023-01-08T18:44:16.937Z,347.97
2023-01-08T18:46:45.481Z,197.23
2023-01-08T18:49:15.177Z,177.87
2023-01-08T18:51:43.143Z,181.53
2023-01-08T18:54:11.813Z,179.30
2023-01-08T18:56:39.802Z,142.40
2023-01-08T18:59:08.707Z,279.13
2023-01-08T19:01:36.836Z,154.30
2023-01-08T19:04:07.340Z,82.37
2023-01-08T19:06:36.569Z,42.40
2023-01-08T19:09:04.339Z,33.13
2023-01-08T19:11:31.859Z,31.53
2023-01-08T19:13:59.401Z,108.13
2023-01-08T19:16:27.496Z,205.40
2023-01-08T19:18:54.907Z,161.00
2023-01-08T19:21:22.939Z,208.17
2023-01-08T19:23:50.653Z,188.07
2023-01-08T19:26:18.297Z,184.37
2023-01-08T19:28:45.744Z,183.60
2023-01-08T19:31:15.752Z,215.83
2023-01-08T19:33:43.390Z,211.47
2023-01-08T19:36:14.420Z,168.37
2023-01-08T19:38:42.582Z,126.73
2023-01-08T19:41:30.114Z,121.67
2023-01-08T19:43:58.249Z,127.97
2023-01-08T19:46:25.735Z,173.50
2023-01-08T19:48:53.644Z,143.83
2023-01-08T19:51:20.970Z,134.30
2023-01-08T19:53:48.341Z,151.43
2023-01-08T19:56:16.680Z,160.30
2023-01-08T19:58:44.306Z,113.60
2023-01-08T20:01:12.940Z,115.07
2023-01-08T20:03:41.267Z,94.10
2023-01-08T20:06:11.767Z,123.40
2023-01-08T20:08:39.333Z,125.87
2023-01-08T20:11:08.795Z,193.40
2023-01-08T20:13:37.004Z,126.87
2023-01-08T20:16:06.835Z,134.03
2023-01-08T20:18:35.705Z,223.20
2023-01-08T20:21:17.898Z,221.10
2023-01-08T20:23:45.681Z,252.87
2023-01-08T20:26:18.984Z,254.87
2023-01-08T20:28:47.363Z,251.73
2023-01-08T20:31:17.633Z,191.90
2023-01-08T20:33:46.449Z,214.17
2023-01-08T20:36:15.755Z,221.67
2023-01-08T20:38:44.029Z,206.97
2023-01-08T20:41:14.394Z,191.93
2023-01-08T20:43:41.838Z,184.13
2023-01-08T20:46:12.248Z,181.77
2023-01-08T20:48:47.073Z,180.27
2023-01-08T20:51:15.310Z,191.70
2023-01-08T20:53:42.723Z,198.17
2023-01-08T20:56:15.986Z,214.37
2023-01-08T20:58:46.844Z,209.83
2023-01-08T21:01:22.495Z,221.87
2023-01-08T21:03:52.130Z,187.53
2023-01-08T21:06:21.496Z,183.97
2023-01-08T21:08:50.462Z,137.63
2023-01-08T21:11:18.976Z,80.63
2023-01-08T21:13:46.466Z,66.30
2023-01-08T21:16:17.524Z,44.07
2023-01-08T21:18:48.204Z,59.03
2023-01-08T21:21:21.845Z,75.13
2023-01-08T21:23:49.732Z,84.37
2023-01-08T21:26:18.313Z,47.13
2023-01-08T21:28:46.733Z,61.30
2023-01-08T21:31:17.594Z,67.47
2023-01-08T21:33:48.507Z,80.57
2023-01-08T21:36:19.127Z,89.77
2023-01-08T21:38:46.938Z,82.80
2023-01-08T21:41:39.083Z,71.37
2023-01-08T21:44:34.696Z,87.60
2023-01-08T21:47:04.037Z,91.77
2023-01-08T21:49:32.107Z,108.43
2023-01-08T21:52:18.286Z,104.97
2023-01-08T21:54:45.570Z,110.97
2023-01-08T21:57:13.105Z,97.90
2023-01-08T21:59:40.445Z,162.43
2023-01-08T22:02:08.966Z,179.73
2023-01-08T22:04:37.526Z,126.70
2023-01-08T22:07:04.871Z,111.40
2023-01-08T22:09:32.547Z,125.37
2023-01-08T22:12:00.108Z,113.83
2023-01-08T22:14:27.559Z,111.97
2023-01-08T22:16:55.010Z,117.63
2023-01-08T22:19:22.402Z,123.50
2023-01-08T22:21:49.755Z,103.70
2023-01-08T22:24:17.179Z,91.17
2023-01-08T22:26:44.440Z,67.87
2023-01-08T22:29:14.637Z,64.00
2023-01-08T22:31:42.038Z,58.80
2023-01-08T22:34:13.046Z,64.60
2023-01-08T22:36:41.390Z,62.47
2023-01-08T22:39:09.030Z,58.17
2023-01-08T22:41:36.750Z,47.43
2023-01-08T22:44:04.734Z,42.03
2023-01-08T22:46:32.409Z,39.23
2023-01-08T22:49:00.895Z,48.90
2023-01-08T22:51:28.539Z,35.83
2023-01-08T22:53:57.724Z,39.97
2023-01-08T22:56:26.706Z,37.87
2023-01-08T22:58:54.771Z,44.00
2023-01-08T23:01:25.150Z,46.40
2023-01-08T23:03:55.240Z,41.00
2023-01-08T23:06:24.373Z,39.53
2023-01-08T23:08:52.771Z,49.40
2023-01-08T23:11:22.738Z,78.07
2023-01-08T23:13:51.436Z,71.10
2023-01-08T23:16:21.844Z,54.57
2023-01-08T23:18:50.500Z,79.33
2023-01-08T23:21:20.685Z,92.37
2023-01-08T23:23:48.141Z,76.97
2023-01-08T23:26:19.725Z,75.20
2023-01-08T23:28:48.946Z,85.20
2023-01-08T23:31:20.331Z,77.93
2023-01-08T23:33:47.824Z,79.77
2023-01-08T23:36:18.671Z,87.77
2023-01-08T23:38:47.881Z,134.93
2023-01-08T23:41:16.116Z,116.17
2023-01-08T23:43:43.799Z,119.27
2023-01-08T23:46:11.180Z,99.47
2023-01-08T23:48:38.536Z,127.17
2023-01-08T23:51:06.065Z,141.60
2023-01-08T23:53:33.425Z,133.47
2023-01-08T23:56:00.783Z,121.47
2023-01-08T23:58:28.455Z,109.40
